sensor_id;sensor_type;location;lat;lon;timestamp;temperature;humidity
39525;DHT22;25203;50.754;6.978;2024-02-04T00:01:48;9.50;99.90
39525;DHT22;25203;50.754;6.978;2024-02-04T00:03:48;9.50;99.90
39525;DHT22;25203;50.754;6.978;2024-02-04T00:05:49;9.50;99.90
39525;DHT22;25203;50.754;6.978;2024-02-04T00:07:50;9.50;99.90
39525;DHT22;25203;50.754;6.978;2024-02-04T00:09:51;9.40;99.90
39525;DHT22;25203;50.754;6.978;2024-02-04T00:11:52;9.40;99.90
39525;DHT22;25203;50.754;6.978;2024-02-04T00:13:53;9.40;99.90
39525;DHT22;25203;50.754;6.978;2024-02-04T00:15:53;9.40;99.90
39525;DHT22;25203;50.754;6.978;2024-02-04T00:17:54;9.40;99.90
39525;DHT22;25203;50.754;6.978;2024-02-04T00:19:56;9.40;99.90
39525;DHT22;25203;50.754;6.978;2024-02-04T00:21:57;9.40;99.90
39525;DHT22;25203;50.754;6.978;2024-02-04T00:23:57;9.30;99.90
39525;DHT22;25203;50.754;6.978;2024-02-04T00:25:58;9.30;99.90
39525;DHT22;25203;50.754;6.978;2024-02-04T00:27:58;9.30;99.90
39525;DHT22;25203;50.754;6.978;2024-02-04T00:29:59;9.30;99.90
39525;DHT22;25203;50.754;6.978;2024-02-04T00:32:00;9.30;99.90
39525;DHT22;25203;50.754;6.978;2024-02-04T00:34:00;9.30;99.90
39525;DHT22;25203;50.754;6.978;2024-02-04T00:36:01;9.30;99.90
39525;DHT22;25203;50.754;6.978;2024-02-04T00:38:02;9.30;99.90
39525;DHT22;25203;50.754;6.978;2024-02-04T00:40:03;9.30;99.90
39525;DHT22;25203;50.754;6.978;2024-02-04T00:42:04;9.20;99.90
39525;DHT22;25203;50.754;6.978;2024-02-04T00:44:05;9.30;99.90
39525;DHT22;25203;50.754;6.978;2024-02-04T00:46:06;9.20;99.90
39525;DHT22;25203;50.754;6.978;2024-02-04T00:48:08;9.20;99.90
39525;DHT22;25203;50.754;6.978;2024-02-04T00:50:08;9.20;99.90
39525;DHT22;25203;50.754;6.978;2024-02-04T00:52:09;9.30;99.90
39525;DHT22;25203;50.754;6.978;2024-02-04T00:54:10;9.20;99.90
39525;DHT22;25203;50.754;6.978;2024-02-04T00:56:11;9.20;99.90
39525;DHT22;25203;50.754;6.978;2024-02-04T00:58:11;9.20;99.90
39525;DHT22;25203;50.754;6.978;2024-02-04T01:00:12;9.20;99.90
39525;DHT22;25203;50.754;6.978;2024-02-04T01:02:13;9.20;99.90
39525;DHT22;25203;50.754;6.978;2024-02-04T01:04:14;9.20;99.90
39525;DHT22;25203;50.754;6.978;2024-02-04T01:06:14;9.20;99.90
39525;DHT22;25203;50.754;6.978;2024-02-04T01:08:15;9.20;99.90
39525;DHT22;25203;50.754;6.978;2024-02-04T01:10:15;9.20;99.90
39525;DHT22;25203;50.754;6.978;2024-02-04T01:12:16;9.30;99.90
39525;DHT22;25203;50.754;6.978;2024-02-04T01:14:16;9.30;99.90
39525;DHT22;25203;50.754;6.978;2024-02-04T01:16:17;9.30;99.90
39525;DHT22;25203;50.754;6.978;2024-02-04T01:18:18;9.30;99.90
39525;DHT22;25203;50.754;6.978;2024-02-04T01:20:18;9.30;99.90
39525;DHT22;25203;50.754;6.978;2024-02-04T01:22:19;9.30;99.90
39525;DHT22;25203;50.754;6.978;2024-02-04T01:24:20;9.30;99.90
39525;DHT22;25203;50.754;6.978;2024-02-04T01:26:20;9.30;99.90
39525;DHT22;25203;50.754;6.978;2024-02-04T01:28:21;9.30;99.90
39525;DHT22;25203;50.754;6.978;2024-02-04T01:30:21;9.30;99.90
39525;DHT22;25203;50.754;6.978;2024-02-04T01:32:22;9.20;99.90
39525;DHT22;25203;50.754;6.978;2024-02-04T01:34:23;9.30;99.90
39525;DHT22;25203;50.754;6.978;2024-02-04T01:36:23;9.20;99.90
39525;DHT22;25203;50.754;6.978;2024-02-04T01:38:24;9.30;99.90
39525;DHT22;25203;50.754;6.978;2024-02-04T01:40:24;9.30;99.90
39525;DHT22;25203;50.754;6.978;2024-02-04T01:42:25;9.20;99.90
39525;DHT22;25203;50.754;6.978;2024-02-04T01:44:25;9.30;99.90
39525;DHT22;25203;50.754;6.978;2024-02-04T01:46:26;9.30;99.90
39525;DHT22;25203;50.754;6.978;2024-02-04T01:48:27;9.30;99.90
39525;DHT22;25203;50.754;6.978;2024-02-04T01:50:27;9.30;99.90
39525;DHT22;25203;50.754;6.978;2024-02-04T01:52:30;9.20;99.90
39525;DHT22;25203;50.754;6.978;2024-02-04T01:54:31;9.30;99.90
39525;DHT22;25203;50.754;6.978;2024-02-04T01:56:32;9.30;99.90
39525;DHT22;25203;50.754;6.978;2024-02-04T01:58:34;9.30;99.90
39525;DHT22;25203;50.754;6.978;2024-02-04T02:00:35;9.30;99.90
39525;DHT22;25203;50.754;6.978;2024-02-04T02:02:39;9.30;99.90
39525;DHT22;25203;50.754;6.978;2024-02-04T02:04:42;9.30;99.90
39525;DHT22;25203;50.754;6.978;2024-02-04T02:06:44;9.30;99.90
39525;DHT22;25203;50.754;6.978;2024-02-04T02:08:46;9.30;99.90
39525;DHT22;25203;50.754;6.978;2024-02-04T02:10:48;9.30;99.90
39525;DHT22;25203;50.754;6.978;2024-02-04T02:12:54;9.40;99.90
39525;DHT22;25203;50.754;6.978;2024-02-04T02:15:15;9.40;99.90
39525;DHT22;25203;50.754;6.978;2024-02-04T02:17:22;9.40;99.90
39525;DHT22;25203;50.754;6.978;2024-02-04T02:19:50;9.50;99.90
39525;DHT22;25203;50.754;6.978;2024-02-04T02:26:12;9.50;99.90
39525;DHT22;25203;50.754;6.978;2024-02-04T02:28:13;9.50;99.90
39525;DHT22;25203;50.754;6.978;2024-02-04T02:30:13;9.50;99.90
39525;DHT22;25203;50.754;6.978;2024-02-04T02:32:14;9.50;99.90
39525;DHT22;25203;50.754;6.978;2024-02-04T02:34:16;9.60;99.90
39525;DHT22;25203;50.754;6.978;2024-02-04T02:36:21;9.60;99.90
39525;DHT22;25203;50.754;6.978;2024-02-04T02:38:35;9.60;99.90
39525;DHT22;25203;50.754;6.978;2024-02-04T02:42:42;9.70;99.90
39525;DHT22;25203;50.754;6.978;2024-02-04T02:44:44;9.70;99.90
39525;DHT22;25203;50.754;6.978;2024-02-04T02:46:48;9.80;99.90
39525;DHT22;25203;50.754;6.978;2024-02-04T02:48:49;9.80;99.90
39525;DHT22;25203;50.754;6.978;2024-02-04T02:50:50;9.80;99.90
39525;DHT22;25203;50.754;6.978;2024-02-04T02:52:50;9.90;99.90
39525;DHT22;25203;50.754;6.978;2024-02-04T02:54:51;9.90;99.90
39525;DHT22;25203;50.754;6.978;2024-02-04T02:56:51;9.90;99.90
39525;DHT22;25203;50.754;6.978;2024-02-04T02:58:52;9.90;99.90
39525;DHT22;25203;50.754;6.978;2024-02-04T03:00:53;9.90;99.90
39525;DHT22;25203;50.754;6.978;2024-02-04T03:02:53;10.00;99.90
39525;DHT22;25203;50.754;6.978;2024-02-04T03:04:54;10.00;99.90
39525;DHT22;25203;50.754;6.978;2024-02-04T03:06:55;10.00;99.90
39525;DHT22;25203;50.754;6.978;2024-02-04T03:08:55;10.00;99.90
39525;DHT22;25203;50.754;6.978;2024-02-04T03:10:56;10.10;99.90
39525;DHT22;25203;50.754;6.978;2024-02-04T03:12:56;10.10;99.90
39525;DHT22;25203;50.754;6.978;2024-02-04T03:14:57;10.10;99.90
39525;DHT22;25203;50.754;6.978;2024-02-04T03:16:57;10.10;99.90
39525;DHT22;25203;50.754;6.978;2024-02-04T03:18:58;10.20;99.90
39525;DHT22;25203;50.754;6.978;2024-02-04T03:20:59;10.20;99.90
39525;DHT22;25203;50.754;6.978;2024-02-04T03:22:59;10.10;99.90
39525;DHT22;25203;50.754;6.978;2024-02-04T03:25:00;10.10;99.90
39525;DHT22;25203;50.754;6.978;2024-02-04T03:27:01;10.10;99.90
39525;DHT22;25203;50.754;6.978;2024-02-04T03:29:01;10.00;99.90
39525;DHT22;25203;50.754;6.978;2024-02-04T03:31:05;10.10;99.90
39525;DHT22;25203;50.754;6.978;2024-02-04T03:33:05;10.10;99.90
39525;DHT22;25203;50.754;6.978;2024-02-04T03:35:06;10.10;99.90
39525;DHT22;25203;50.754;6.978;2024-02-04T03:37:07;10.10;99.90
39525;DHT22;25203;50.754;6.978;2024-02-04T03:39:07;10.10;99.90
39525;DHT22;25203;50.754;6.978;2024-02-04T03:41:08;10.10;99.90
39525;DHT22;25203;50.754;6.978;2024-02-04T03:43:09;10.10;99.90
39525;DHT22;25203;50.754;6.978;2024-02-04T03:45:09;10.10;99.90
39525;DHT22;25203;50.754;6.978;2024-02-04T03:47:10;10.00;99.90
39525;DHT22;25203;50.754;6.978;2024-02-04T03:49:10;10.10;99.90
39525;DHT22;25203;50.754;6.978;2024-02-04T03:51:20;10.00;99.90
39525;DHT22;25203;50.754;6.978;2024-02-04T03:53:21;10.00;99.90
39525;DHT22;25203;50.754;6.978;2024-02-04T03:55:23;10.10;99.90
39525;DHT22;25203;50.754;6.978;2024-02-04T03:57:24;10.10;99.90
39525;DHT22;25203;50.754;6.978;2024-02-04T03:59:24;10.10;99.90
39525;DHT22;25203;50.754;6.978;2024-02-04T04:01:25;10.10;99.90
39525;DHT22;25203;50.754;6.978;2024-02-04T04:03:26;10.10;99.90
39525;DHT22;25203;50.754;6.978;2024-02-04T04:05:26;10.10;99.90
39525;DHT22;25203;50.754;6.978;2024-02-04T04:07:27;10.10;99.90
39525;DHT22;25203;50.754;6.978;2024-02-04T04:09:27;10.10;99.90
39525;DHT22;25203;50.754;6.978;2024-02-04T04:11:29;10.10;99.90
39525;DHT22;25203;50.754;6.978;2024-02-04T04:13:29;10.10;99.90
39525;DHT22;25203;50.754;6.978;2024-02-04T04:15:30;10.10;99.90
39525;DHT22;25203;50.754;6.978;2024-02-04T04:17:31;10.10;99.90
39525;DHT22;25203;50.754;6.978;2024-02-04T04:19:31;10.10;99.90
39525;DHT22;25203;50.754;6.978;2024-02-04T04:21:33;10.10;99.90
39525;DHT22;25203;50.754;6.978;2024-02-04T04:23:34;10.20;99.90
39525;DHT22;25203;50.754;6.978;2024-02-04T04:25:34;10.20;99.90
39525;DHT22;25203;50.754;6.978;2024-02-04T04:27:35;10.10;99.90
39525;DHT22;25203;50.754;6.978;2024-02-04T04:29:35;10.10;99.90
39525;DHT22;25203;50.754;6.978;2024-02-04T04:31:36;10.10;99.90
39525;DHT22;25203;50.754;6.978;2024-02-04T04:33:37;10.10;99.90
39525;DHT22;25203;50.754;6.978;2024-02-04T04:35:37;10.10;99.90
39525;DHT22;25203;50.754;6.978;2024-02-04T04:37:38;10.10;99.90
39525;DHT22;25203;50.754;6.978;2024-02-04T04:39:39;10.10;99.90
39525;DHT22;25203;50.754;6.978;2024-02-04T04:41:41;10.10;99.90
39525;DHT22;25203;50.754;6.978;2024-02-04T04:43:42;10.10;99.90
39525;DHT22;25203;50.754;6.978;2024-02-04T04:45:43;10.10;99.90
39525;DHT22;25203;50.754;6.978;2024-02-04T04:47:43;10.10;99.90
39525;DHT22;25203;50.754;6.978;2024-02-04T04:49:44;10.10;99.90
39525;DHT22;25203;50.754;6.978;2024-02-04T04:51:45;10.10;99.90
39525;DHT22;25203;50.754;6.978;2024-02-04T04:53:49;10.10;99.90
39525;DHT22;25203;50.754;6.978;2024-02-04T04:55:49;10.10;99.90
39525;DHT22;25203;50.754;6.978;2024-02-04T04:57:50;10.10;99.90
39525;DHT22;25203;50.754;6.978;2024-02-04T04:59:52;10.10;99.90
39525;DHT22;25203;50.754;6.978;2024-02-04T05:01:53;10.20;99.90
39525;DHT22;25203;50.754;6.978;2024-02-04T05:03:53;10.20;99.90
39525;DHT22;25203;50.754;6.978;2024-02-04T05:05:54;10.20;99.90
39525;DHT22;25203;50.754;6.978;2024-02-04T05:07:54;10.20;99.90
39525;DHT22;25203;50.754;6.978;2024-02-04T05:09:55;10.20;99.90
39525;DHT22;25203;50.754;6.978;2024-02-04T05:11:55;10.30;99.90
39525;DHT22;25203;50.754;6.978;2024-02-04T05:13:56;10.30;99.90
39525;DHT22;25203;50.754;6.978;2024-02-04T05:15:57;10.30;99.90
39525;DHT22;25203;50.754;6.978;2024-02-04T05:17:57;10.30;99.90
39525;DHT22;25203;50.754;6.978;2024-02-04T05:19:58;10.30;99.90
39525;DHT22;25203;50.754;6.978;2024-02-04T05:21:58;10.30;99.90
39525;DHT22;25203;50.754;6.978;2024-02-04T05:23:59;10.30;99.90
39525;DHT22;25203;50.754;6.978;2024-02-04T05:26:03;10.30;99.90
39525;DHT22;25203;50.754;6.978;2024-02-04T05:28:05;10.30;99.90
39525;DHT22;25203;50.754;6.978;2024-02-04T05:30:07;10.30;99.90
39525;DHT22;25203;50.754;6.978;2024-02-04T05:32:07;10.30;99.90
39525;DHT22;25203;50.754;6.978;2024-02-04T05:34:09;10.30;99.90
39525;DHT22;25203;50.754;6.978;2024-02-04T05:36:10;10.30;99.90
39525;DHT22;25203;50.754;6.978;2024-02-04T05:38:10;10.30;99.90
39525;DHT22;25203;50.754;6.978;2024-02-04T05:40:11;10.30;99.90
39525;DHT22;25203;50.754;6.978;2024-02-04T05:42:13;10.30;99.90
39525;DHT22;25203;50.754;6.978;2024-02-04T05:44:13;10.30;99.90
39525;DHT22;25203;50.754;6.978;2024-02-04T05:46:14;10.30;99.90
39525;DHT22;25203;50.754;6.978;2024-02-04T05:48:15;10.20;99.90
39525;DHT22;25203;50.754;6.978;2024-02-04T05:50:15;10.30;99.90
39525;DHT22;25203;50.754;6.978;2024-02-04T05:52:16;10.20;99.90
39525;DHT22;25203;50.754;6.978;2024-02-04T05:54:17;10.20;99.90
39525;DHT22;25203;50.754;6.978;2024-02-04T05:56:17;10.20;99.90
39525;DHT22;25203;50.754;6.978;2024-02-04T05:58:18;10.20;99.90
39525;DHT22;25203;50.754;6.978;2024-02-04T06:00:18;10.20;99.90
39525;DHT22;25203;50.754;6.978;2024-02-04T06:02:19;10.20;99.90
39525;DHT22;25203;50.754;6.978;2024-02-04T06:04:20;10.20;99.90
39525;DHT22;25203;50.754;6.978;2024-02-04T06:06:20;10.20;99.90
39525;DHT22;25203;50.754;6.978;2024-02-04T06:08:21;10.20;99.90
39525;DHT22;25203;50.754;6.978;2024-02-04T06:10:21;10.20;99.90
39525;DHT22;25203;50.754;6.978;2024-02-04T06:12:22;10.30;99.90
39525;DHT22;25203;50.754;6.978;2024-02-04T06:14:23;10.30;99.90
39525;DHT22;25203;50.754;6.978;2024-02-04T06:16:23;10.30;99.90
39525;DHT22;25203;50.754;6.978;2024-02-04T06:18:24;10.30;99.90
39525;DHT22;25203;50.754;6.978;2024-02-04T06:20:24;10.30;99.90
39525;DHT22;25203;50.754;6.978;2024-02-04T06:22:25;10.30;99.90
39525;DHT22;25203;50.754;6.978;2024-02-04T06:24:26;10.30;99.90
39525;DHT22;25203;50.754;6.978;2024-02-04T06:26:26;10.30;99.90
39525;DHT22;25203;50.754;6.978;2024-02-04T06:28:27;10.30;99.90
39525;DHT22;25203;50.754;6.978;2024-02-04T06:30:27;10.30;99.90
39525;DHT22;25203;50.754;6.978;2024-02-04T06:32:28;10.20;99.90
39525;DHT22;25203;50.754;6.978;2024-02-04T06:34:28;10.20;99.90
39525;DHT22;25203;50.754;6.978;2024-02-04T06:36:29;10.20;99.90
39525;DHT22;25203;50.754;6.978;2024-02-04T06:38:30;10.20;99.90
39525;DHT22;25203;50.754;6.978;2024-02-04T06:40:30;10.20;99.90
39525;DHT22;25203;50.754;6.978;2024-02-04T06:42:31;10.10;99.90
39525;DHT22;25203;50.754;6.978;2024-02-04T06:44:31;10.10;99.90
39525;DHT22;25203;50.754;6.978;2024-02-04T06:46:32;10.10;99.90
39525;DHT22;25203;50.754;6.978;2024-02-04T06:48:32;10.10;99.90
39525;DHT22;25203;50.754;6.978;2024-02-04T06:50:33;10.10;99.90
39525;DHT22;25203;50.754;6.978;2024-02-04T06:52:34;10.10;99.90
39525;DHT22;25203;50.754;6.978;2024-02-04T06:54:34;10.10;99.90
39525;DHT22;25203;50.754;6.978;2024-02-04T06:56:35;10.00;99.90
39525;DHT22;25203;50.754;6.978;2024-02-04T06:58:38;9.90;99.90
39525;DHT22;25203;50.754;6.978;2024-02-04T07:00:38;10.00;99.90
39525;DHT22;25203;50.754;6.978;2024-02-04T07:02:39;9.90;99.90
39525;DHT22;25203;50.754;6.978;2024-02-04T07:04:39;9.90;99.90
39525;DHT22;25203;50.754;6.978;2024-02-04T07:06:40;9.90;99.90
39525;DHT22;25203;50.754;6.978;2024-02-04T07:08:40;9.90;99.90
39525;DHT22;25203;50.754;6.978;2024-02-04T07:10:41;9.90;99.90
39525;DHT22;25203;50.754;6.978;2024-02-04T07:12:42;9.90;99.90
39525;DHT22;25203;50.754;6.978;2024-02-04T07:14:43;9.90;99.90
39525;DHT22;25203;50.754;6.978;2024-02-04T07:16:43;9.90;99.90
39525;DHT22;25203;50.754;6.978;2024-02-04T07:18:44;9.90;99.90
39525;DHT22;25203;50.754;6.978;2024-02-04T07:20:44;9.90;99.90
39525;DHT22;25203;50.754;6.978;2024-02-04T07:22:45;9.90;99.90
39525;DHT22;25203;50.754;6.978;2024-02-04T07:24:46;10.00;99.90
39525;DHT22;25203;50.754;6.978;2024-02-04T07:26:46;10.00;99.90
39525;DHT22;25203;50.754;6.978;2024-02-04T07:28:47;10.00;99.90
39525;DHT22;25203;50.754;6.978;2024-02-04T07:30:47;10.10;99.90
39525;DHT22;25203;50.754;6.978;2024-02-04T07:32:48;10.10;99.90
39525;DHT22;25203;50.754;6.978;2024-02-04T07:34:49;10.10;99.90
39525;DHT22;25203;50.754;6.978;2024-02-04T07:36:49;10.20;99.90
39525;DHT22;25203;50.754;6.978;2024-02-04T07:38:52;10.10;99.90
39525;DHT22;25203;50.754;6.978;2024-02-04T07:40:53;10.10;99.90
39525;DHT22;25203;50.754;6.978;2024-02-04T07:42:55;10.20;99.90
39525;DHT22;25203;50.754;6.978;2024-02-04T07:44:56;10.20;99.90
39525;DHT22;25203;50.754;6.978;2024-02-04T07:46:57;10.20;99.90
39525;DHT22;25203;50.754;6.978;2024-02-04T07:48:57;10.30;99.90
39525;DHT22;25203;50.754;6.978;2024-02-04T07:50:58;10.30;99.90
39525;DHT22;25203;50.754;6.978;2024-02-04T07:52:59;10.40;99.90
39525;DHT22;25203;50.754;6.978;2024-02-04T07:54:59;10.40;99.90
39525;DHT22;25203;50.754;6.978;2024-02-04T07:57:00;10.40;99.90
39525;DHT22;25203;50.754;6.978;2024-02-04T07:59:00;10.40;99.90
39525;DHT22;25203;50.754;6.978;2024-02-04T08:01:01;10.40;99.90
39525;DHT22;25203;50.754;6.978;2024-02-04T08:03:02;10.40;99.90
39525;DHT22;25203;50.754;6.978;2024-02-04T08:05:02;10.50;99.90
39525;DHT22;25203;50.754;6.978;2024-02-04T08:07:03;10.50;99.90
39525;DHT22;25203;50.754;6.978;2024-02-04T08:09:04;10.50;99.90
39525;DHT22;25203;50.754;6.978;2024-02-04T08:11:05;10.50;99.90
39525;DHT22;25203;50.754;6.978;2024-02-04T08:13:05;10.50;99.90
39525;DHT22;25203;50.754;6.978;2024-02-04T08:15:07;10.50;99.90
39525;DHT22;25203;50.754;6.978;2024-02-04T08:17:07;10.50;99.90
39525;DHT22;25203;50.754;6.978;2024-02-04T08:19:08;10.50;99.90
39525;DHT22;25203;50.754;6.978;2024-02-04T08:21:09;10.50;99.90
39525;DHT22;25203;50.754;6.978;2024-02-04T08:23:09;10.60;99.90
39525;DHT22;25203;50.754;6.978;2024-02-04T08:25:10;10.50;99.90
39525;DHT22;25203;50.754;6.978;2024-02-04T08:27:12;10.60;99.90
39525;DHT22;25203;50.754;6.978;2024-02-04T08:29:12;10.60;99.90
39525;DHT22;25203;50.754;6.978;2024-02-04T08:31:13;10.60;99.90
39525;DHT22;25203;50.754;6.978;2024-02-04T08:33:14;10.50;99.90
39525;DHT22;25203;50.754;6.978;2024-02-04T08:35:14;10.60;99.90
39525;DHT22;25203;50.754;6.978;2024-02-04T08:37:15;10.60;99.90
39525;DHT22;25203;50.754;6.978;2024-02-04T08:39:16;10.60;99.90
39525;DHT22;25203;50.754;6.978;2024-02-04T08:41:16;10.60;99.90
39525;DHT22;25203;50.754;6.978;2024-02-04T08:43:17;10.60;99.90
39525;DHT22;25203;50.754;6.978;2024-02-04T08:45:17;10.70;99.90
39525;DHT22;25203;50.754;6.978;2024-02-04T08:47:18;10.70;99.90
39525;DHT22;25203;50.754;6.978;2024-02-04T08:49:19;10.80;99.90
39525;DHT22;25203;50.754;6.978;2024-02-04T08:51:19;10.90;99.90
39525;DHT22;25203;50.754;6.978;2024-02-04T08:53:21;10.80;99.90
39525;DHT22;25203;50.754;6.978;2024-02-04T08:55:22;10.90;99.90
39525;DHT22;25203;50.754;6.978;2024-02-04T08:57:22;11.00;99.90
39525;DHT22;25203;50.754;6.978;2024-02-04T08:59:23;11.00;99.90
39525;DHT22;25203;50.754;6.978;2024-02-04T09:01:24;11.10;99.90
39525;DHT22;25203;50.754;6.978;2024-02-04T09:03:25;11.10;99.90
39525;DHT22;25203;50.754;6.978;2024-02-04T09:05:26;11.10;99.90
39525;DHT22;25203;50.754;6.978;2024-02-04T09:07:27;11.10;99.90
39525;DHT22;25203;50.754;6.978;2024-02-04T09:09:27;11.00;99.90
39525;DHT22;25203;50.754;6.978;2024-02-04T09:11:28;11.00;99.90
39525;DHT22;25203;50.754;6.978;2024-02-04T09:13:28;10.90;99.90
39525;DHT22;25203;50.754;6.978;2024-02-04T09:15:29;10.90;99.90
39525;DHT22;25203;50.754;6.978;2024-02-04T09:17:30;10.90;99.90
39525;DHT22;25203;50.754;6.978;2024-02-04T09:19:30;10.90;99.90
39525;DHT22;25203;50.754;6.978;2024-02-04T09:21:34;10.90;99.90
39525;DHT22;25203;50.754;6.978;2024-02-04T09:23:34;10.90;99.90
39525;DHT22;25203;50.754;6.978;2024-02-04T09:25:35;10.80;99.90
39525;DHT22;25203;50.754;6.978;2024-02-04T09:27:36;10.90;99.90
39525;DHT22;25203;50.754;6.978;2024-02-04T09:29:37;10.90;99.90
39525;DHT22;25203;50.754;6.978;2024-02-04T09:31:37;10.90;99.90
39525;DHT22;25203;50.754;6.978;2024-02-04T09:33:38;10.90;99.90
39525;DHT22;25203;50.754;6.978;2024-02-04T09:35:40;10.90;99.90
39525;DHT22;25203;50.754;6.978;2024-02-04T09:37:42;11.00;99.90
39525;DHT22;25203;50.754;6.978;2024-02-04T09:39:42;10.90;99.90
39525;DHT22;25203;50.754;6.978;2024-02-04T09:41:43;10.90;99.90
39525;DHT22;25203;50.754;6.978;2024-02-04T09:43:44;10.90;99.90
39525;DHT22;25203;50.754;6.978;2024-02-04T09:45:46;10.90;99.90
39525;DHT22;25203;50.754;6.978;2024-02-04T09:47:47;11.00;99.90
39525;DHT22;25203;50.754;6.978;2024-02-04T09:49:50;11.10;99.90
39525;DHT22;25203;50.754;6.978;2024-02-04T09:51:52;11.10;99.90
39525;DHT22;25203;50.754;6.978;2024-02-04T09:53:55;11.20;99.90
39525;DHT22;25203;50.754;6.978;2024-02-04T09:56:03;11.30;99.90
39525;DHT22;25203;50.754;6.978;2024-02-04T09:58:06;11.40;99.90
39525;DHT22;25203;50.754;6.978;2024-02-04T10:00:07;11.40;99.90
39525;DHT22;25203;50.754;6.978;2024-02-04T10:02:09;11.40;99.90
39525;DHT22;25203;50.754;6.978;2024-02-04T10:04:10;11.50;99.90
39525;DHT22;25203;50.754;6.978;2024-02-04T10:06:11;11.50;99.90
39525;DHT22;25203;50.754;6.978;2024-02-04T10:08:11;11.50;99.90
39525;DHT22;25203;50.754;6.978;2024-02-04T10:10:12;11.50;99.90
39525;DHT22;25203;50.754;6.978;2024-02-04T10:12:13;11.40;99.90
39525;DHT22;25203;50.754;6.978;2024-02-04T10:14:15;11.40;99.90
39525;DHT22;25203;50.754;6.978;2024-02-04T10:16:17;11.40;99.90
39525;DHT22;25203;50.754;6.978;2024-02-04T10:18:17;11.30;99.90
39525;DHT22;25203;50.754;6.978;2024-02-04T10:20:18;11.30;99.90
39525;DHT22;25203;50.754;6.978;2024-02-04T10:22:19;11.20;99.90
39525;DHT22;25203;50.754;6.978;2024-02-04T10:24:21;11.20;99.90
39525;DHT22;25203;50.754;6.978;2024-02-04T10:26:22;11.20;99.90
39525;DHT22;25203;50.754;6.978;2024-02-04T10:28:22;11.30;99.90
39525;DHT22;25203;50.754;6.978;2024-02-04T10:30:23;11.60;99.90
39525;DHT22;25203;50.754;6.978;2024-02-04T10:32:24;11.80;99.90
39525;DHT22;25203;50.754;6.978;2024-02-04T10:34:27;11.90;99.90
39525;DHT22;25203;50.754;6.978;2024-02-04T10:36:30;12.00;99.90
39525;DHT22;25203;50.754;6.978;2024-02-04T10:38:34;12.00;99.90
39525;DHT22;25203;50.754;6.978;2024-02-04T10:40:35;12.10;99.90
39525;DHT22;25203;50.754;6.978;2024-02-04T10:42:36;12.10;99.90
39525;DHT22;25203;50.754;6.978;2024-02-04T10:44:39;12.10;99.90
39525;DHT22;25203;50.754;6.978;2024-02-04T10:46:41;12.10;99.90
39525;DHT22;25203;50.754;6.978;2024-02-04T10:48:42;12.10;99.90
39525;DHT22;25203;50.754;6.978;2024-02-04T10:50:46;12.10;99.90
39525;DHT22;25203;50.754;6.978;2024-02-04T10:52:48;12.00;99.90
39525;DHT22;25203;50.754;6.978;2024-02-04T10:54:50;11.90;99.90
39525;DHT22;25203;50.754;6.978;2024-02-04T10:57:03;11.80;99.90
39525;DHT22;25203;50.754;6.978;2024-02-04T10:59:07;11.70;99.90
39525;DHT22;25203;50.754;6.978;2024-02-04T11:01:08;11.70;99.90
39525;DHT22;25203;50.754;6.978;2024-02-04T11:03:10;11.70;99.90
39525;DHT22;25203;50.754;6.978;2024-02-04T11:05:12;11.80;99.90
39525;DHT22;25203;50.754;6.978;2024-02-04T11:07:13;11.80;99.90
39525;DHT22;25203;50.754;6.978;2024-02-04T11:09:15;11.80;99.90
39525;DHT22;25203;50.754;6.978;2024-02-04T11:11:16;11.80;99.90
39525;DHT22;25203;50.754;6.978;2024-02-04T11:13:17;11.80;99.90
39525;DHT22;25203;50.754;6.978;2024-02-04T11:15:20;11.80;99.90
39525;DHT22;25203;50.754;6.978;2024-02-04T11:19:44;11.80;99.90
39525;DHT22;25203;50.754;6.978;2024-02-04T11:24:26;12.00;99.90
39525;DHT22;25203;50.754;6.978;2024-02-04T11:26:30;12.00;99.90
39525;DHT22;25203;50.754;6.978;2024-02-04T11:28:31;12.00;99.90
39525;DHT22;25203;50.754;6.978;2024-02-04T11:30:35;12.00;99.90
39525;DHT22;25203;50.754;6.978;2024-02-04T11:32:36;12.00;99.90
39525;DHT22;25203;50.754;6.978;2024-02-04T11:34:36;11.80;99.90
39525;DHT22;25203;50.754;6.978;2024-02-04T11:36:38;11.70;99.90
39525;DHT22;25203;50.754;6.978;2024-02-04T11:38:40;11.70;99.90
39525;DHT22;25203;50.754;6.978;2024-02-04T11:40:41;11.60;99.90
39525;DHT22;25203;50.754;6.978;2024-02-04T11:42:42;11.60;99.90
39525;DHT22;25203;50.754;6.978;2024-02-04T11:44:44;11.50;99.90
39525;DHT22;25203;50.754;6.978;2024-02-04T11:46:48;11.50;99.90
39525;DHT22;25203;50.754;6.978;2024-02-04T11:48:53;11.50;99.90
39525;DHT22;25203;50.754;6.978;2024-02-04T11:50:54;11.40;99.90
39525;DHT22;25203;50.754;6.978;2024-02-04T11:53:12;11.40;99.90
39525;DHT22;25203;50.754;6.978;2024-02-04T11:55:14;11.40;99.90
39525;DHT22;25203;50.754;6.978;2024-02-04T11:57:15;11.40;99.90
39525;DHT22;25203;50.754;6.978;2024-02-04T11:59:16;11.30;99.90
39525;DHT22;25203;50.754;6.978;2024-02-04T12:01:22;11.30;99.90
39525;DHT22;25203;50.754;6.978;2024-02-04T12:03:33;11.30;99.90
39525;DHT22;25203;50.754;6.978;2024-02-04T12:05:35;11.30;99.90
39525;DHT22;25203;50.754;6.978;2024-02-04T12:07:36;11.40;99.90
39525;DHT22;25203;50.754;6.978;2024-02-04T12:09:38;11.50;99.90
39525;DHT22;25203;50.754;6.978;2024-02-04T12:11:39;11.50;99.90
39525;DHT22;25203;50.754;6.978;2024-02-04T12:13:41;11.70;99.90
39525;DHT22;25203;50.754;6.978;2024-02-04T12:15:43;11.80;99.90
39525;DHT22;25203;50.754;6.978;2024-02-04T12:17:45;12.00;99.90
39525;DHT22;25203;50.754;6.978;2024-02-04T12:19:45;11.90;99.90
39525;DHT22;25203;50.754;6.978;2024-02-04T12:21:46;12.00;99.90
39525;DHT22;25203;50.754;6.978;2024-02-04T12:23:47;11.90;99.90
39525;DHT22;25203;50.754;6.978;2024-02-04T12:25:47;11.90;99.90
39525;DHT22;25203;50.754;6.978;2024-02-04T12:27:51;11.90;99.90
39525;DHT22;25203;50.754;6.978;2024-02-04T12:29:52;12.00;99.90
39525;DHT22;25203;50.754;6.978;2024-02-04T12:32:00;12.00;99.90
39525;DHT22;25203;50.754;6.978;2024-02-04T12:34:01;12.00;99.90
39525;DHT22;25203;50.754;6.978;2024-02-04T12:36:01;12.10;99.90
39525;DHT22;25203;50.754;6.978;2024-02-04T12:38:02;12.10;99.90
39525;DHT22;25203;50.754;6.978;2024-02-04T12:40:04;12.10;99.90
39525;DHT22;25203;50.754;6.978;2024-02-04T12:42:05;12.00;99.90
39525;DHT22;25203;50.754;6.978;2024-02-04T12:44:05;12.00;99.90
39525;DHT22;25203;50.754;6.978;2024-02-04T12:46:06;12.10;99.90
39525;DHT22;25203;50.754;6.978;2024-02-04T12:48:09;12.20;99.90
39525;DHT22;25203;50.754;6.978;2024-02-04T12:50:11;12.20;99.90
39525;DHT22;25203;50.754;6.978;2024-02-04T12:52:12;12.20;99.90
39525;DHT22;25203;50.754;6.978;2024-02-04T12:54:13;12.20;99.90
39525;DHT22;25203;50.754;6.978;2024-02-04T12:56:13;12.20;99.90
39525;DHT22;25203;50.754;6.978;2024-02-04T12:58:14;12.20;99.90
39525;DHT22;25203;50.754;6.978;2024-02-04T13:00:18;12.20;99.90
39525;DHT22;25203;50.754;6.978;2024-02-04T13:02:18;12.10;99.90